Atlantic, Maine
Current Conditions -  °F | °C
As of 6:15 AM on Monday 20 Oct 2014 (Local Time) from KBHB Reporting Station
Few Clouds Few Clouds  
Wind Chill:   Ceiling: Unl
Heat Index:   Visibility: 10mi
Dew Point: -1°   Wind: 3mph
Humidity: 75%   Direction: 260°W
Pressure: 29.88"   Gusts: NA
Location:  44.1716°N, 68.4245°W
Report Text: KBHB 201015Z AUTO 26003KT 10SM FEW041 03/M01 A2988 RMK AO1
Loading
Personal Weather Stations






























Interactive Weather Map
Tropical Storm Tracking
New forecast layout! Learn more

10-Day Weather Forecast

Advertisements
Track Severe Weather on mobile